Del Rio International Airport Del Rio US
ICAO: KDRT
IATA: DRT
Category: Medium
Scheduled Services: No

Elevation: 1002 ft
TransAlt. 18000 ft.

Airport Communications:
APP:119.6
ASOS:118.525
CLNC DEL:120.5
DEP:119.6
SAN ANGELO RDO:122.3
CTAF/UNICOM:122.8

KDRT Zoom In..

If Map Doesn't Load, Click Here

Runways:

(A) RW 13 length 6300 ft width 100 ft
ILS 111.90 / hdg 132

(B) RW 31 length 6300 ft width 100 ft
---- / hdg 312

Location; KDRT
Day. 26 / Time. 09.53 Zulu
* Altimeter: 29.95
* Temperature: 24° c. 75.2°f.
* Wind from: 110° Speed 07 kn.
Dewpoint: 23° c.
Visibility: 10 Statute Miles.
Clouds: Clear (automated report).

KDRT 260953Z AUTO 11007KT 10SM CLR 24/23 A2995 RMK AO2 SLP122 T02440233 $


Wind From 110°
Speed 07 kn.

 
 
jpsmedia.com for Web Design worldairports.se 2018   terms of use